createdAt,value
2018-08-22T00:01:37.684Z,98.00
2018-08-22T00:04:06.309Z,98.20
2018-08-22T00:06:34.748Z,98.50
2018-08-22T00:09:03.515Z,98.70
2018-08-22T00:11:31.953Z,98.60
2018-08-22T00:14:00.406Z,98.60
2018-08-22T00:16:28.965Z,98.90
2018-08-22T00:18:57.405Z,99.00
2018-08-22T00:21:25.869Z,99.10
2018-08-22T00:23:54.335Z,99.10
2018-08-22T00:26:22.762Z,99.30
2018-08-22T00:28:51.417Z,99.10
2018-08-22T00:31:19.869Z,99.10
2018-08-22T00:33:48.305Z,99.30
2018-08-22T00:36:16.757Z,99.60
2018-08-22T00:38:45.317Z,99.80
2018-08-22T00:41:13.787Z,99.70
2018-08-22T00:43:42.254Z,99.90
2018-08-22T00:46:10.732Z,99.90
2018-08-22T00:48:39.176Z,99.90
2018-08-22T00:51:07.617Z,99.90
2018-08-22T00:53:36.105Z,99.90
2018-08-22T00:56:04.578Z,99.90
2018-08-22T00:58:33.008Z,99.90
2018-08-22T01:01:01.466Z,99.90
2018-08-22T01:03:29.893Z,99.90
2018-08-22T01:05:58.377Z,99.90
2018-08-22T01:08:26.902Z,99.90
2018-08-22T01:10:55.353Z,99.90
2018-08-22T01:13:23.781Z,99.90
2018-08-22T01:15:52.346Z,99.90
2018-08-22T01:18:20.801Z,99.90
2018-08-22T01:20:49.268Z,99.90
2018-08-22T01:23:17.809Z,99.90
2018-08-22T01:25:46.315Z,99.90
2018-08-22T01:28:14.762Z,99.90
2018-08-22T01:30:43.294Z,99.90
2018-08-22T01:33:11.722Z,99.90
2018-08-22T01:35:40.190Z,99.90
2018-08-22T01:38:08.670Z,99.90
2018-08-22T01:40:37.158Z,99.90
2018-08-22T01:43:05.643Z,99.90
2018-08-22T01:45:34.133Z,99.90
2018-08-22T01:48:02.566Z,99.90
2018-08-22T01:50:31.009Z,99.90
2018-08-22T01:52:59.477Z,99.90
2018-08-22T01:55:27.934Z,99.90
2018-08-22T01:57:56.381Z,99.90
2018-08-22T02:00:24.899Z,99.90
2018-08-22T02:02:53.341Z,99.90
2018-08-22T02:05:21.878Z,99.90
2018-08-22T02:07:50.382Z,99.90
2018-08-22T02:10:18.841Z,99.90
2018-08-22T02:12:47.311Z,99.90
2018-08-22T02:15:15.782Z,99.90
2018-08-22T02:17:44.260Z,99.90
2018-08-22T02:20:12.707Z,99.90
2018-08-22T02:22:41.190Z,99.90
2018-08-22T02:25:09.685Z,99.90
2018-08-22T02:27:38.073Z,99.90
2018-08-22T02:30:06.617Z,99.90
2018-08-22T02:32:35.061Z,99.90
2018-08-22T02:35:03.540Z,99.80
2018-08-22T02:37:32.016Z,99.60
2018-08-22T02:40:00.434Z,99.60
2018-08-22T02:42:28.840Z,99.20
2018-08-22T02:44:57.330Z,99.10
2018-08-22T02:47:25.772Z,98.90
2018-08-22T02:49:54.225Z,99.00
2018-08-22T02:52:22.790Z,98.90
2018-08-22T02:54:51.241Z,98.60
2018-08-22T02:57:19.665Z,98.20
2018-08-22T02:59:48.149Z,98.10
2018-08-22T03:02:16.583Z,97.70
2018-08-22T03:04:45.036Z,97.50
2018-08-22T03:07:13.557Z,97.50
2018-08-22T03:09:42.002Z,97.50
2018-08-22T03:12:10.442Z,97.10
2018-08-22T03:14:38.929Z,97.20
2018-08-22T03:17:07.373Z,96.70
2018-08-22T03:19:35.848Z,96.50
2018-08-22T03:22:04.318Z,95.70
2018-08-22T03:24:32.764Z,95.70
2018-08-22T03:27:01.198Z,95.60
2018-08-22T03:29:29.733Z,95.30
2018-08-22T03:31:58.190Z,94.90
2018-08-22T03:34:26.638Z,94.20
2018-08-22T03:36:55.159Z,94.10
2018-08-22T03:39:23.586Z,94.00
2018-08-22T03:41:52.021Z,93.60
2018-08-22T03:44:20.489Z,93.60
2018-08-22T03:46:49.028Z,93.90
2018-08-22T03:49:17.484Z,93.20
2018-08-22T03:51:45.992Z,93.60
2018-08-22T03:54:14.435Z,92.90
2018-08-22T03:56:42.885Z,92.80
2018-08-22T03:59:11.377Z,92.70
2018-08-22T04:01:39.830Z,92.70
2018-08-22T04:04:08.317Z,93.00
2018-08-22T04:06:36.841Z,92.60
2018-08-22T04:09:06.830Z,92.70
2018-08-22T04:11:35.278Z,92.80
2018-08-22T04:14:03.809Z,92.80
2018-08-22T04:16:32.417Z,93.20
2018-08-22T04:19:00.941Z,93.00
2018-08-22T04:21:29.433Z,92.80
2018-08-22T04:23:57.889Z,93.00
2018-08-22T04:26:26.340Z,93.10
2018-08-22T04:28:54.813Z,93.20
2018-08-22T04:31:23.265Z,93.30
2018-08-22T04:33:51.781Z,93.60
2018-08-22T04:36:20.245Z,93.60
2018-08-22T04:38:48.709Z,93.70
2018-08-22T04:41:17.145Z,93.90
2018-08-22T04:43:45.655Z,93.80
2018-08-22T04:46:14.142Z,93.90
2018-08-22T04:48:42.585Z,94.40
2018-08-22T04:51:11.135Z,94.50
2018-08-22T04:53:39.569Z,94.30
2018-08-22T04:56:08.021Z,93.90
2018-08-22T04:58:36.543Z,94.60
2018-08-22T05:01:05.089Z,94.60
2018-08-22T05:03:33.549Z,94.50
2018-08-22T05:06:02.109Z,94.40
2018-08-22T05:08:30.514Z,94.20
2018-08-22T05:11:00.246Z,94.10
2018-08-22T05:13:28.765Z,94.80
2018-08-22T05:15:57.207Z,95.30
2018-08-22T05:18:25.661Z,94.70
2018-08-22T05:20:54.156Z,94.70
2018-08-22T05:23:22.593Z,94.70
2018-08-22T05:25:51.041Z,95.10
2018-08-22T05:28:19.553Z,95.20
2018-08-22T05:30:48.008Z,96.00
2018-08-22T05:33:16.453Z,95.70
2018-08-22T05:35:44.973Z,95.50
2018-08-22T05:38:13.433Z,95.60
2018-08-22T05:40:41.954Z,95.90
2018-08-22T05:43:10.393Z,95.70
2018-08-22T05:45:38.838Z,95.50
2018-08-22T05:48:07.287Z,94.70
2018-08-22T05:50:35.797Z,95.00
2018-08-22T05:53:04.493Z,95.60
2018-08-22T05:55:33.129Z,95.60
2018-08-22T05:58:02.020Z,95.40
2018-08-22T06:00:30.485Z,95.80
2018-08-22T06:02:58.978Z,95.60
2018-08-22T06:05:27.535Z,95.70
2018-08-22T06:07:55.987Z,96.30
2018-08-22T06:10:24.445Z,95.90
2018-08-22T06:12:52.941Z,96.80
2018-08-22T06:15:21.405Z,97.50
2018-08-22T06:17:49.873Z,97.90
2018-08-22T06:20:18.345Z,98.00
2018-08-22T06:22:46.809Z,98.70
2018-08-22T06:25:15.254Z,98.80
2018-08-22T06:27:43.809Z,98.70
2018-08-22T06:30:12.291Z,99.40
2018-08-22T06:32:40.728Z,99.70
2018-08-22T06:35:09.233Z,99.00
2018-08-22T06:37:37.668Z,99.40
2018-08-22T06:40:06.314Z,99.90
2018-08-22T06:42:34.992Z,99.90
2018-08-22T06:45:03.485Z,99.30
2018-08-22T06:47:31.987Z,98.80
2018-08-22T06:50:00.539Z,99.40
2018-08-22T06:52:29.083Z,98.70
2018-08-22T06:54:57.577Z,97.10
2018-08-22T06:57:26.062Z,96.70
2018-08-22T06:59:54.521Z,96.70
2018-08-22T07:02:22.969Z,96.20
2018-08-22T07:04:51.446Z,95.20
2018-08-22T07:07:19.893Z,94.50
2018-08-22T07:09:48.369Z,93.60
2018-08-22T07:12:16.888Z,93.20
2018-08-22T07:14:45.374Z,92.70
2018-08-22T07:17:13.864Z,92.40
2018-08-22T07:19:42.369Z,90.90
2018-08-22T07:22:10.905Z,90.60
2018-08-22T07:24:39.410Z,88.10
2018-08-22T07:27:07.972Z,83.60
2018-08-22T07:29:36.433Z,80.60
2018-08-22T07:32:04.877Z,79.20
2018-08-22T07:34:33.349Z,78.10
2018-08-22T07:37:01.849Z,78.10
2018-08-22T07:39:30.289Z,76.30
2018-08-22T07:41:58.786Z,75.60
2018-08-22T07:44:27.217Z,74.30
2018-08-22T07:46:55.658Z,72.60
2018-08-22T07:49:24.197Z,71.60
2018-08-22T07:51:52.637Z,71.10
2018-08-22T07:54:22.473Z,70.30
2018-08-22T07:56:50.952Z,70.10
2018-08-22T07:59:20.183Z,69.40
2018-08-22T08:01:48.727Z,69.30
2018-08-22T08:04:17.153Z,68.90
2018-08-22T08:06:45.590Z,68.30
2018-08-22T08:09:15.193Z,68.40
2018-08-22T08:11:43.957Z,67.80
2018-08-22T08:14:12.403Z,67.80
2018-08-22T08:16:40.833Z,67.20
2018-08-22T08:19:09.336Z,65.80
2018-08-22T08:21:38.101Z,64.60
2018-08-22T08:24:06.996Z,61.60
2018-08-22T08:26:35.499Z,61.80
2018-08-22T08:29:03.962Z,61.10
2018-08-22T08:31:32.418Z,60.40
2018-08-22T08:34:00.943Z,60.70
2018-08-22T08:36:29.534Z,59.90
2018-08-22T08:38:57.994Z,59.80
2018-08-22T08:41:26.587Z,60.10
2018-08-22T08:43:55.022Z,59.40
2018-08-22T08:46:23.524Z,59.90
2018-08-22T08:48:52.725Z,59.70
2018-08-22T08:51:21.481Z,59.10
2018-08-22T08:53:49.921Z,58.90
2018-08-22T08:56:18.447Z,59.60
2018-08-22T08:58:46.897Z,59.20
2018-08-22T09:01:15.330Z,59.40
2018-08-22T09:03:44.000Z,58.80
2018-08-22T09:06:12.633Z,59.30
2018-08-22T09:08:41.161Z,58.50
2018-08-22T09:11:15.598Z,57.60
2018-08-22T09:13:53.193Z,57.00
2018-08-22T09:16:22.297Z,56.50
2018-08-22T09:18:50.810Z,56.60
2018-08-22T09:21:19.306Z,55.80
2018-08-22T09:23:47.801Z,55.60
2018-08-22T09:26:16.316Z,55.30
2018-08-22T09:28:44.814Z,54.90
2018-08-22T09:31:13.327Z,55.50
2018-08-22T09:33:41.807Z,54.90
2018-08-22T09:36:10.278Z,54.80
2018-08-22T09:38:38.758Z,54.30
2018-08-22T09:41:07.213Z,55.40
2018-08-22T09:43:35.683Z,55.20
2018-08-22T09:46:04.297Z,55.60
2018-08-22T09:48:32.730Z,55.10
2018-08-22T09:51:01.290Z,54.30
2018-08-22T09:53:29.776Z,54.70
2018-08-22T09:55:58.244Z,55.30
2018-08-22T09:58:26.738Z,54.90
2018-08-22T10:01:00.573Z,55.60
2018-08-22T10:03:30.453Z,54.90
2018-08-22T10:05:58.905Z,54.50
2018-08-22T10:08:27.442Z,55.20
2018-08-22T10:10:55.885Z,55.00
2018-08-22T10:13:24.336Z,55.30
2018-08-22T10:15:52.889Z,55.50
2018-08-22T10:18:21.352Z,55.40
2018-08-22T10:20:49.905Z,55.80
2018-08-22T10:23:18.393Z,55.40
2018-08-22T10:25:46.839Z,55.30
2018-08-22T10:28:15.306Z,55.40
2018-08-22T10:30:43.807Z,55.40
2018-08-22T10:33:12.247Z,55.00
2018-08-22T10:35:40.693Z,54.50
2018-08-22T10:38:09.169Z,55.20
2018-08-22T10:40:37.610Z,54.10
2018-08-22T10:43:06.105Z,54.20
2018-08-22T10:45:34.613Z,53.90
2018-08-22T10:48:03.238Z,54.30
2018-08-22T10:50:31.898Z,54.50
2018-08-22T10:53:00.390Z,54.60
2018-08-22T10:55:28.825Z,54.20
2018-08-22T10:57:57.265Z,54.20
2018-08-22T11:00:25.917Z,54.60
2018-08-22T11:02:54.397Z,54.60
2018-08-22T11:05:22.845Z,54.30
2018-08-22T11:07:51.382Z,54.70
2018-08-22T11:10:19.827Z,54.20
2018-08-22T11:12:48.498Z,55.00
2018-08-22T11:15:17.026Z,54.90
2018-08-22T11:17:45.464Z,54.60
2018-08-22T11:20:13.957Z,54.70
2018-08-22T11:22:53.525Z,55.50
2018-08-22T11:25:33.044Z,54.90
2018-08-22T11:28:12.533Z,55.00
2018-08-22T11:30:52.173Z,55.10
2018-08-22T11:33:31.902Z,55.10
2018-08-22T11:35:59.222Z,54.40
2018-08-22T11:38:27.693Z,61.00
2018-08-22T11:40:56.261Z,54.20
2018-08-22T11:43:24.826Z,54.60
2018-08-22T11:45:53.270Z,54.50
2018-08-22T11:48:21.797Z,54.00
2018-08-22T11:50:50.383Z,53.30
2018-08-22T11:53:18.867Z,54.50
2018-08-22T11:55:47.673Z,54.00
2018-08-22T11:58:16.133Z,54.00
2018-08-22T12:00:44.582Z,53.90
2018-08-22T12:03:13.132Z,53.90
2018-08-22T12:05:41.593Z,52.80
2018-08-22T12:08:10.085Z,53.20
2018-08-22T12:10:39.566Z,54.00
2018-08-22T12:13:07.985Z,53.50
2018-08-22T12:15:36.437Z,52.80
2018-08-22T12:18:05.042Z,53.20
2018-08-22T12:20:33.509Z,52.90
2018-08-22T12:23:02.014Z,52.80
2018-08-22T12:25:30.514Z,53.20
2018-08-22T12:27:58.968Z,52.80
2018-08-22T12:30:27.425Z,52.70
2018-08-22T12:32:55.922Z,52.60
2018-08-22T12:35:24.370Z,53.40
2018-08-22T12:37:52.940Z,53.00
2018-08-22T12:40:21.438Z,52.70
2018-08-22T12:42:49.873Z,52.20
2018-08-22T12:45:18.313Z,51.60
2018-08-22T12:47:46.786Z,51.50
2018-08-22T12:50:15.233Z,51.50
2018-08-22T12:52:43.653Z,52.20
2018-08-22T12:55:12.385Z,52.60
2018-08-22T12:57:40.813Z,51.90
2018-08-22T13:00:09.285Z,51.60
2018-08-22T13:02:37.785Z,51.90
2018-08-22T13:05:06.310Z,51.60
2018-08-22T13:07:34.765Z,51.80
2018-08-22T13:10:03.337Z,50.80
2018-08-22T13:12:31.829Z,51.40
2018-08-22T13:15:00.270Z,51.30
2018-08-22T13:17:28.937Z,51.10
2018-08-22T13:19:57.406Z,52.00
2018-08-22T13:22:25.913Z,51.00
2018-08-22T13:24:54.455Z,50.50
2018-08-22T13:27:22.909Z,50.90
2018-08-22T13:29:51.349Z,50.90
2018-08-22T13:32:19.858Z,50.90
2018-08-22T13:34:48.335Z,50.50
2018-08-22T13:37:16.793Z,49.70
2018-08-22T13:39:45.294Z,50.10
2018-08-22T13:42:13.802Z,49.90
2018-08-22T13:44:42.549Z,49.70
2018-08-22T13:47:11.273Z,49.00
2018-08-22T13:49:39.941Z,49.20
2018-08-22T13:52:08.414Z,48.60
2018-08-22T13:54:36.953Z,48.90
2018-08-22T13:57:05.425Z,49.00
2018-08-22T13:59:33.877Z,48.80
2018-08-22T14:02:02.382Z,49.50
2018-08-22T14:04:30.820Z,49.10
2018-08-22T14:06:59.278Z,49.60
2018-08-22T14:09:27.757Z,49.00
2018-08-22T14:11:56.334Z,49.10
2018-08-22T14:14:24.807Z,50.00
2018-08-22T14:16:53.306Z,49.70
2018-08-22T14:19:21.757Z,49.80
2018-08-22T14:21:50.395Z,50.30
2018-08-22T14:24:18.973Z,50.80
2018-08-22T14:26:47.442Z,50.80
2018-08-22T14:29:15.919Z,51.10
2018-08-22T14:31:44.422Z,50.90
2018-08-22T14:34:13.135Z,50.70
2018-08-22T14:36:41.677Z,50.90
2018-08-22T14:39:11.969Z,51.30
2018-08-22T14:41:40.429Z,51.30
2018-08-22T14:44:09.017Z,51.10
2018-08-22T14:46:37.530Z,51.30
2018-08-22T14:49:06.225Z,51.30
2018-08-22T14:51:34.817Z,51.50
2018-08-22T14:54:03.461Z,51.60
2018-08-22T14:56:31.930Z,51.90
2018-08-22T14:59:00.406Z,51.40
2018-08-22T15:01:28.925Z,51.50
2018-08-22T15:03:57.366Z,51.30
2018-08-22T15:06:25.802Z,51.40
2018-08-22T15:09:02.249Z,51.80
2018-08-22T15:11:30.722Z,51.60
2018-08-22T15:13:59.185Z,51.50
2018-08-22T15:16:27.657Z,51.80
2018-08-22T15:18:56.129Z,51.80
2018-08-22T15:21:24.585Z,51.90
2018-08-22T15:23:53.705Z,52.00
2018-08-22T15:26:22.222Z,52.10
2018-08-22T15:28:51.137Z,51.80
2018-08-22T15:31:19.665Z,52.20
2018-08-22T15:33:48.218Z,52.30
2018-08-22T15:36:16.690Z,52.30
2018-08-22T15:38:45.205Z,52.70
2018-08-22T15:41:13.733Z,53.00
2018-08-22T15:43:42.116Z,52.90
2018-08-22T15:46:10.626Z,52.80
2018-08-22T15:48:39.153Z,52.90
2018-08-22T15:51:07.609Z,53.20
2018-08-22T15:53:36.093Z,53.10
2018-08-22T15:56:04.620Z,52.90
2018-08-22T15:58:33.987Z,52.30
2018-08-22T16:01:02.581Z,52.40
2018-08-22T16:03:31.059Z,52.20
2018-08-22T16:05:59.531Z,52.30
2018-08-22T16:08:28.810Z,52.70
2018-08-22T16:10:57.268Z,53.30
2018-08-22T16:13:29.839Z,53.30
2018-08-22T16:16:00.982Z,54.40
2018-08-22T16:18:29.528Z,54.30
2018-08-22T16:21:00.214Z,55.00
2018-08-22T16:23:30.365Z,55.70
2018-08-22T16:25:59.935Z,56.30
2018-08-22T16:28:35.085Z,56.40
2018-08-22T16:31:03.567Z,56.90
2018-08-22T16:33:32.605Z,56.50
2018-08-22T16:36:01.116Z,56.80
2018-08-22T16:38:29.757Z,57.20
2018-08-22T16:40:58.253Z,57.40
2018-08-22T16:43:42.321Z,57.50
2018-08-22T16:46:12.289Z,57.60
2018-08-22T16:48:41.533Z,58.10
2018-08-22T16:51:10.181Z,58.40
2018-08-22T16:53:38.641Z,58.80
2018-08-22T16:56:07.165Z,58.90
2018-08-22T16:58:35.662Z,59.10
2018-08-22T17:01:04.193Z,59.30
2018-08-22T17:03:32.744Z,59.80
2018-08-22T17:06:07.174Z,60.20
2018-08-22T17:08:35.661Z,60.90
2018-08-22T17:11:06.290Z,61.50
2018-08-22T17:13:44.535Z,61.80
2018-08-22T17:16:13.005Z,62.30
2018-08-22T17:18:41.605Z,62.30
2018-08-22T17:21:10.413Z,62.50
2018-08-22T17:23:39.104Z,62.80
2018-08-22T17:26:14.445Z,63.00
2018-08-22T17:28:44.922Z,63.50
2018-08-22T17:31:13.896Z,64.10
2018-08-22T17:33:47.018Z,64.80
2018-08-22T17:36:15.507Z,65.20
2018-08-22T17:38:46.989Z,65.40
2018-08-22T17:41:16.625Z,65.60
2018-08-22T17:43:58.232Z,66.00
2018-08-22T17:46:28.487Z,66.40
2018-08-22T17:48:57.265Z,66.90
2018-08-22T17:51:25.984Z,67.20
2018-08-22T17:53:54.505Z,67.50
2018-08-22T17:56:24.275Z,67.90
2018-08-22T17:58:53.669Z,68.10
2018-08-22T18:01:22.777Z,68.50
2018-08-22T18:03:51.749Z,68.70
2018-08-22T18:06:20.308Z,69.00
2018-08-22T18:11:32.205Z,69.70
2018-08-22T18:14:00.760Z,70.10
2018-08-22T18:16:29.186Z,70.50
2018-08-22T18:18:57.665Z,71.00
2018-08-22T18:21:32.902Z,71.40
2018-08-22T18:24:01.778Z,71.80
2018-08-22T18:26:30.232Z,72.30
2018-08-22T18:28:58.734Z,72.70
2018-08-22T18:31:27.174Z,73.10
2018-08-22T18:33:59.723Z,73.60
2018-08-22T18:36:29.121Z,73.90
2018-08-22T18:39:05.265Z,74.40
2018-08-22T18:41:33.734Z,74.80
2018-08-22T18:44:02.434Z,75.30
2018-08-22T18:46:30.939Z,75.50
2018-08-22T18:49:00.838Z,76.00
2018-08-22T18:51:29.313Z,76.40
2018-08-22T18:53:57.824Z,77.00
2018-08-22T18:56:26.293Z,77.50
2018-08-22T18:58:54.785Z,78.10
2018-08-22T19:01:23.318Z,78.60
2018-08-22T19:03:51.893Z,79.10
2018-08-22T19:06:20.329Z,79.50
2018-08-22T19:08:48.845Z,79.80
2018-08-22T19:11:17.350Z,80.30
2018-08-22T19:13:45.829Z,80.80
2018-08-22T19:16:14.318Z,81.10
2018-08-22T19:18:42.801Z,81.50
2018-08-22T19:21:11.635Z,82.20
2018-08-22T19:23:40.179Z,82.60
2018-08-22T19:26:08.834Z,83.40
2018-08-22T19:28:54.353Z,84.00
2018-08-22T19:31:22.967Z,84.50
2018-08-22T19:33:51.430Z,85.10
2018-08-22T19:36:19.901Z,85.50
2018-08-22T19:38:48.380Z,86.00
2018-08-22T19:41:28.121Z,86.70
2018-08-22T19:43:56.612Z,87.40
2018-08-22T19:46:25.103Z,87.90
2018-08-22T19:48:53.678Z,88.50
2018-08-22T19:51:22.123Z,89.10
2018-08-22T19:53:58.134Z,89.90
2018-08-22T19:56:27.381Z,90.20
2018-08-22T19:58:55.845Z,90.70
2018-08-22T20:01:24.318Z,91.10
2018-08-22T20:03:55.298Z,91.40
2018-08-22T20:06:25.302Z,91.70
2018-08-22T20:08:54.961Z,92.20
2018-08-22T20:11:23.608Z,92.50
2018-08-22T20:13:54.634Z,93.00
2018-08-22T20:16:23.744Z,93.30
2018-08-22T20:18:53.791Z,93.50
2018-08-22T20:21:37.918Z,93.80
2018-08-22T20:24:08.996Z,94.10
2018-08-22T20:26:38.285Z,94.60
2018-08-22T20:29:06.873Z,95.20
2018-08-22T20:31:36.154Z,95.60
2018-08-22T20:34:21.011Z,96.00
2018-08-22T20:36:49.959Z,96.90
2018-08-22T20:39:18.413Z,97.20
2018-08-22T20:41:47.029Z,97.80
2018-08-22T20:44:20.541Z,98.00
2018-08-22T20:46:49.358Z,98.60
2018-08-22T20:49:19.297Z,99.00
2018-08-22T20:51:47.959Z,99.60
2018-08-22T20:54:21.501Z,99.90
2018-08-22T20:56:55.306Z,99.90
2018-08-22T20:59:23.851Z,99.90
2018-08-22T21:01:57.659Z,99.90
2018-08-22T21:04:26.086Z,99.90
2018-08-22T21:06:54.486Z,99.90
2018-08-22T21:09:22.925Z,99.90
2018-08-22T21:11:52.353Z,99.90
2018-08-22T21:14:20.807Z,99.90
2018-08-22T21:16:49.268Z,99.90
2018-08-22T21:19:17.784Z,99.90
2018-08-22T21:21:46.265Z,99.90
2018-08-22T21:24:14.755Z,99.90
2018-08-22T21:26:45.070Z,99.90
2018-08-22T21:29:13.674Z,99.90
2018-08-22T21:31:42.162Z,99.90
2018-08-22T21:34:16.141Z,99.90
2018-08-22T21:36:45.593Z,99.90
2018-08-22T21:39:19.594Z,99.90
2018-08-22T21:41:48.376Z,99.90
2018-08-22T21:44:18.270Z,99.90
2018-08-22T21:46:50.729Z,99.90
2018-08-22T21:49:19.210Z,99.90
2018-08-22T21:51:47.964Z,99.90
2018-08-22T21:54:16.461Z,99.90
2018-08-22T21:56:45.030Z,99.90
2018-08-22T21:59:13.485Z,99.90
2018-08-22T22:01:47.745Z,99.90
2018-08-22T22:04:22.306Z,99.90
2018-08-22T22:06:51.101Z,99.90
2018-08-22T22:09:20.524Z,99.90
2018-08-22T22:11:49.422Z,99.90
2018-08-22T22:14:23.368Z,99.90
2018-08-22T22:16:52.058Z,99.90
2018-08-22T22:19:20.525Z,99.90
2018-08-22T22:21:49.033Z,99.90
2018-08-22T22:24:17.485Z,99.90
2018-08-22T22:26:45.941Z,99.90
2018-08-22T22:29:14.482Z,99.90
2018-08-22T22:31:43.179Z,99.90
2018-08-22T22:34:12.249Z,99.90
2018-08-22T22:36:40.762Z,99.90
2018-08-22T22:39:23.453Z,99.90
2018-08-22T22:41:52.046Z,99.90
2018-08-22T22:44:20.490Z,99.90
2018-08-22T22:46:48.937Z,99.90
2018-08-22T22:49:17.458Z,99.90
2018-08-22T22:51:45.922Z,99.90
2018-08-22T22:54:14.369Z,99.90
2018-08-22T22:56:42.858Z,99.90
2018-08-22T22:59:11.304Z,99.90
2018-08-22T23:01:39.757Z,99.90
2018-08-22T23:04:08.317Z,99.90
2018-08-22T23:06:36.751Z,99.90
2018-08-22T23:09:06.033Z,99.90
2018-08-22T23:11:34.545Z,99.90
2018-08-22T23:14:03.019Z,99.90
2018-08-22T23:16:38.688Z,99.90
2018-08-22T23:19:07.189Z,99.90
2018-08-22T23:21:35.653Z,99.90
2018-08-22T23:24:14.217Z,99.90
2018-08-22T23:26:42.712Z,99.90
2018-08-22T23:29:11.157Z,99.90
2018-08-22T23:31:39.674Z,99.90
2018-08-22T23:34:08.169Z,99.90
2018-08-22T23:36:36.680Z,99.90
2018-08-22T23:39:07.082Z,99.90
2018-08-22T23:41:35.590Z,99.90
2018-08-22T23:44:04.073Z,99.90
2018-08-22T23:46:32.562Z,99.90
2018-08-22T23:49:01.025Z,99.90
2018-08-22T23:51:29.472Z,99.90
2018-08-22T23:53:58.732Z,99.90
2018-08-22T23:56:28.218Z,99.90
2018-08-22T23:58:57.221Z,99.90
